Airport View

Enter AWOS ICAO identifier for current METAR.

ex. KFNL

KBKF 111758Z 22007KT 10SM SCT150 BKN220 09/M11 A3006 RMK AO2A SLP172 T00881107 10088 21017 58016

11 Dec 2019 19:05

Other Area AWOS: KAPA - KDEN - KFTG - KBJC

TAF KBKF 111700Z 1117/1223 VRB06KT 9999 FEW200 QNH2998INS BECMG 1216/1217 VRB06KT 9999 FEW070 SCT140 520202 QNH2995INS TX09/1120Z TNM01/1211Z